Las Bayas, Argentina
Current Conditions -  °F | °C
As of 8:00 AM on Thursday 18 Dec 2014 (Local Time) from SAZS Reporting Station
Clear Clear  
Wind Chill: 12°   Ceiling: Unl
Heat Index: 12°   Visibility: 6mi
Dew Point:   Wind: 31mph
Humidity: 51%   Direction: 290°WNW
Pressure: 29.97"   Gusts: NA
Location:  41.29°S, 70.7°W
Report Text: SAZS 181100Z 29027KT CAVOK 12/02 Q1015
Loading
Personal Weather Stations






























Interactive Weather Map New forecast layout! Learn more

10-Day Weather Forecast

Advertisements
Track Severe Weather on mobile